Time;durP1;ratioP1;P1;durP2;ratioP2;P2;SDS_P1;SDS_P2;PMS_P1;PMS_P2;Temp;Humidity;BMP_temperature;BMP_pressure;BME280_temperature;BME280_humidity;BME280_pressure;Samples;Min_cycle;Max_cycle;Signal;HPM_P1;HPM_P2
2022/09/06 00:01:08;;;;;;;1.60;0.90;;;24.90;46.70;;;;;;5013065;28;20277;-73
2022/09/06 00:03:34;;;;;;;2.67;1.13;;;24.80;46.80;;;;;;4976336;28;20566;-73
2022/09/06 00:06:09;;;;;;;1.90;0.87;;;24.80;46.70;;;;;;4978507;28;21092;-73
2022/09/06 00:08:35;;;;;;;1.50;0.90;;;24.80;46.90;;;;;;5013176;28;20582;-73
2022/09/06 00:11:01;;;;;;;1.43;0.80;;;24.80;46.80;;;;;;5012680;28;20746;-73
2022/09/06 00:13:27;;;;;;;1.60;0.90;;;24.80;47.00;;;;;;4992373;28;20636;-73
2022/09/06 00:15:52;;;;;;;1.50;0.80;;;24.80;47.20;;;;;;5011463;28;21182;-73
2022/09/06 00:18:18;;;;;;;2.90;1.00;;;24.80;47.30;;;;;;4992319;28;20705;-73
2022/09/06 00:20:44;;;;;;;2.50;0.90;;;24.90;48.00;;;;;;4992652;28;20228;-73
2022/09/06 00:23:10;;;;;;;2.87;0.90;;;24.80;48.60;;;;;;5012731;28;20584;-74
2022/09/06 00:25:35;;;;;;;3.73;2.10;;;24.60;48.90;;;;;;5012774;28;20182;-73
2022/09/06 00:28:04;;;;;;;3.47;1.80;;;24.40;50.20;;;;;;5012949;28;20178;-73
2022/09/06 00:30:31;;;;;;;3.97;1.20;;;24.20;51.30;;;;;;5012246;28;20229;-73
2022/09/06 00:32:57;;;;;;;4.77;1.30;;;24.00;52.30;;;;;;5012631;28;20573;-73
2022/09/06 00:35:24;;;;;;;6.07;1.50;;;23.80;53.80;;;;;;4975692;28;20574;-73
2022/09/06 00:37:54;;;;;;;2.30;1.40;;;23.60;55.10;;;;;;5010872;28;20577;-73
2022/09/06 00:40:20;;;;;;;2.57;1.30;;;23.40;55.60;;;;;;5012147;28;20604;-73
2022/09/06 00:42:46;;;;;;;2.80;1.00;;;23.10;57.10;;;;;;5012372;28;20574;-73
2022/09/06 00:45:12;;;;;;;4.50;1.67;;;23.00;58.00;;;;;;4991790;28;20175;-73
2022/09/06 00:47:41;;;;;;;5.03;1.63;;;22.80;59.40;;;;;;5009067;28;20163;-74
2022/09/06 00:50:09;;;;;;;2.57;1.10;;;22.70;59.90;;;;;;4991293;28;21052;-73
2022/09/06 00:52:36;;;;;;;3.50;1.60;;;22.50;61.10;;;;;;5008592;28;21077;-73
2022/09/06 00:55:03;;;;;;;2.77;1.20;;;22.40;62.50;;;;;;5012385;28;21180;-73
2022/09/06 00:57:30;;;;;;;3.20;1.30;;;22.20;64.30;;;;;;5012206;28;20618;-73
2022/09/06 00:59:58;;;;;;;3.10;1.30;;;22.10;66.20;;;;;;5011891;28;20601;-73
2022/09/06 01:02:24;;;;;;;2.10;1.60;;;22.00;68.60;;;;;;4991428;28;20570;-73
2022/09/06 01:04:51;;;;;;;3.40;1.20;;;21.90;70.70;;;;;;5010541;28;20569;-74
2022/09/06 01:07:54;;;;;;;2.27;1.70;;;21.90;72.80;;;;;;5012069;28;20568;-74
2022/09/06 01:10:29;;;;;;;3.23;1.30;;;21.80;77.40;;;;;;5011828;28;20984;-74
2022/09/06 01:13:24;;;;;;;3.33;1.30;;;21.70;76.50;;;;;;5011848;28;21120;-74
2022/09/06 01:16:05;;;;;;;4.63;1.20;;;21.70;81.70;;;;;;5012017;28;20561;-73
2022/09/06 01:18:56;;;;;;;3.40;1.60;;;21.60;80.30;;;;;;4990632;28;20578;-74
2022/09/06 01:21:31;;;;;;;3.30;1.73;;;21.60;85.00;;;;;;5011543;28;21261;-74
2022/09/06 01:24:28;;;;;;;4.20;1.50;;;21.60;86.50;;;;;;5011896;28;21151;-74
2022/09/06 01:27:19;;;;;;;5.40;1.60;;;21.50;89.60;;;;;;4993300;28;20601;-74
2022/09/06 01:29:51;;;;;;;3.53;1.40;;;21.50;90.90;;;;;;5011364;28;20739;-74
2022/09/06 01:32:52;;;;;;;3.50;1.50;;;21.50;90.60;;;;;;5011797;28;20577;-74
2022/09/06 01:35:24;;;;;;;6.10;1.50;;;21.50;92.30;;;;;;5011738;28;20558;-74
2022/09/06 01:37:50;;;;;;;2.50;1.50;;;21.50;92.40;;;;;;5011566;28;20565;-74
2022/09/06 01:40:16;;;;;;;5.73;2.07;;;21.50;92.70;;;;;;5011343;28;20633;-75
2022/09/06 01:42:44;;;;;;;5.77;1.97;;;21.50;93.30;;;;;;5011662;28;20170;-74
2022/09/06 01:45:16;;;;;;;3.63;1.43;;;21.50;93.80;;;;;;4990911;28;20234;-74
2022/09/06 01:47:58;;;;;;;3.03;2.07;;;21.50;94.80;;;;;;4991505;28;20885;-74
2022/09/06 01:51:04;;;;;;;3.10;1.60;;;21.50;95.10;;;;;;5011282;28;20612;-74
2022/09/06 01:53:39;;;;;;;3.93;1.63;;;21.50;96.60;;;;;;5011716;28;20566;-74
2022/09/06 01:56:05;;;;;;;2.80;1.60;;;21.50;96.50;;;;;;5011608;28;20564;-74
2022/09/06 01:58:45;;;;;;;3.00;1.60;;;21.50;96.30;;;;;;5011754;28;20569;-74
2022/09/06 02:01:20;;;;;;;2.80;1.67;;;21.50;98.70;;;;;;4990452;28;20221;-73
2022/09/06 02:04:02;;;;;;;4.50;2.00;;;21.50;97.80;;;;;;5009465;28;20562;-74
2022/09/06 02:06:41;;;;;;;5.83;2.47;;;21.50;98.70;;;;;;5011671;28;20628;-74
2022/09/06 02:09:12;;;;;;;3.27;2.37;;;21.40;99.10;;;;;;5011622;28;20600;-74
2022/09/06 02:11:58;;;;;;;5.00;2.33;;;21.40;99.30;;;;;;4990667;28;20688;-73
2022/09/06 02:14:48;;;;;;;2.93;2.17;;;21.40;99.90;;;;;;5011567;28;20574;-74
2022/09/06 02:17:19;;;;;;;4.43;2.27;;;21.40;99.90;;;;;;5011458;28;20573;-74
2022/09/06 02:19:53;;;;;;;2.47;1.70;;;21.40;99.90;;;;;;5011114;28;20688;-74
2022/09/06 02:22:24;;;;;;;4.13;2.13;;;21.40;99.90;;;;;;5011325;28;20576;-74
2022/09/06 02:24:52;;;;;;;3.73;1.73;;;21.40;99.90;;;;;;4992401;28;21159;-74
2022/09/06 02:27:18;;;;;;;4.20;2.03;;;21.40;99.90;;;;;;5011406;28;20668;-74
2022/09/06 02:29:44;;;;;;;2.70;1.60;;;21.40;99.90;;;;;;4994444;28;20767;-74
2022/09/06 02:32:17;;;;;;;5.33;2.13;;;21.40;99.90;;;;;;5014931;28;21013;-74
2022/09/06 02:34:45;;;;;;;4.40;2.07;;;21.40;99.90;;;;;;4994939;28;20582;-74
2022/09/06 02:37:15;;;;;;;4.13;2.17;;;21.40;99.90;;;;;;5015012;28;20616;-74
2022/09/06 02:39:42;;;;;;;3.83;1.90;;;21.40;99.90;;;;;;4994603;28;20616;-73
2022/09/06 02:42:10;;;;;;;3.70;2.03;;;21.40;99.90;;;;;;4994022;28;20654;-74
2022/09/06 02:44:36;;;;;;;3.93;2.17;;;21.40;99.90;;;;;;5011420;28;20557;-74
2022/09/06 02:47:02;;;;;;;3.70;2.03;;;21.40;99.90;;;;;;5014773;28;21129;-74
2022/09/06 02:49:28;;;;;;;3.70;2.30;;;21.40;99.90;;;;;;5014645;28;20349;-73
2022/09/06 02:51:54;;;;;;;4.17;2.50;;;21.40;99.90;;;;;;5014808;28;20573;-74
2022/09/06 02:54:20;;;;;;;4.30;2.27;;;21.40;99.90;;;;;;5014829;28;21137;-74
2022/09/06 02:56:46;;;;;;;3.37;2.10;;;21.30;99.90;;;;;;5014793;28;20162;-74
2022/09/06 02:59:11;;;;;;;8.80;2.63;;;21.30;99.90;;;;;;5014320;28;21138;-73
2022/09/06 03:01:37;;;;;;;3.60;2.63;;;21.30;99.90;;;;;;5014406;28;20292;-74
2022/09/06 03:04:03;;;;;;;6.63;2.37;;;21.20;99.90;;;;;;5014537;28;20192;-74
2022/09/06 03:06:29;;;;;;;3.73;3.10;;;21.20;99.90;;;;;;5014682;28;20170;-74
2022/09/06 03:08:55;;;;;;;4.13;2.53;;;21.20;99.90;;;;;;5014427;28;20190;-73
2022/09/06 03:11:21;;;;;;;3.47;2.40;;;21.20;99.90;;;;;;4993445;28;20582;-73
2022/09/06 03:13:47;;;;;;;3.17;2.10;;;21.20;99.90;;;;;;5012286;28;20520;-74
2022/09/06 03:16:12;;;;;;;2.67;2.27;;;21.20;99.90;;;;;;5014396;28;20197;-73
2022/09/06 03:18:38;;;;;;;3.60;2.50;;;21.20;99.90;;;;;;5014254;28;20585;-74
2022/09/06 03:21:04;;;;;;;4.60;3.30;;;21.20;99.90;;;;;;5013853;28;20197;-74
2022/09/06 03:23:30;;;;;;;5.03;2.73;;;21.20;99.90;;;;;;5014193;28;20190;-73
2022/09/06 03:25:56;;;;;;;4.20;3.13;;;21.20;99.90;;;;;;5013990;28;20565;-74
2022/09/06 03:28:22;;;;;;;3.60;1.83;;;21.20;99.90;;;;;;4993276;28;20176;-74
2022/09/06 03:30:50;;;;;;;7.63;2.80;;;21.30;99.90;;;;;;5011834;28;20178;-74
2022/09/06 03:33:16;;;;;;;4.63;2.30;;;21.30;99.90;;;;;;5014056;28;20980;-74
2022/09/06 03:35:57;;;;;;;3.67;1.90;;;21.30;99.90;;;;;;5013964;28;20614;-74
2022/09/06 03:38:24;;;;;;;5.77;2.13;;;21.30;99.90;;;;;;5013863;28;20572;-74
2022/09/06 03:40:51;;;;;;;3.53;1.93;;;21.30;99.90;;;;;;5012681;28;20708;-74
2022/09/06 03:43:18;;;;;;;2.60;2.23;;;21.30;99.90;;;;;;5013737;28;20704;-73
2022/09/06 03:45:46;;;;;;;4.83;2.33;;;21.40;99.90;;;;;;5013737;28;20653;-74
2022/09/06 03:48:12;;;;;;;3.60;2.63;;;21.40;99.90;;;;;;4992976;28;20933;-73
2022/09/06 03:50:38;;;;;;;4.83;2.60;;;21.30;99.90;;;;;;5010127;28;20601;-73
2022/09/06 03:53:03;;;;;;;3.37;2.23;;;21.30;99.90;;;;;;5013710;28;20938;-73
2022/09/06 03:55:29;;;;;;;3.70;2.17;;;21.30;99.90;;;;;;5015169;28;20573;-73
2022/09/06 03:57:55;;;;;;;3.20;2.67;;;21.30;99.90;;;;;;5014257;28;20249;-74
2022/09/06 04:00:20;;;;;;;4.00;1.93;;;21.30;99.90;;;;;;5013930;28;20197;-74
2022/09/06 04:02:46;;;;;;;4.03;2.20;;;21.30;99.90;;;;;;5014517;28;20206;-74
2022/09/06 04:05:13;;;;;;;4.43;2.03;;;21.20;99.90;;;;;;5015274;28;20194;-74
2022/09/06 04:07:41;;;;;;;4.47;2.90;;;21.20;99.90;;;;;;4994124;28;20171;-74
2022/09/06 04:10:07;;;;;;;2.97;2.30;;;21.10;99.90;;;;;;5014949;28;20718;-74
2022/09/06 04:12:33;;;;;;;5.00;2.70;;;21.10;99.90;;;;;;5014692;28;20656;-74
2022/09/06 04:14:59;;;;;;;2.60;2.40;;;21.10;99.90;;;;;;4997649;28;20581;-74
2022/09/06 04:17:25;;;;;;;3.30;2.40;;;21.00;99.90;;;;;;5013366;28;20628;-74
2022/09/06 04:19:50;;;;;;;3.63;2.60;;;21.00;99.90;;;;;;5012652;28;20186;-74
2022/09/06 04:22:16;;;;;;;4.67;2.47;;;21.00;99.90;;;;;;5012744;28;20591;-73
2022/09/06 04:24:42;;;;;;;5.37;3.53;;;21.00;99.90;;;;;;4993071;28;20167;-73
2022/09/06 04:27:07;;;;;;;5.30;3.10;;;20.90;99.90;;;;;;4993231;28;20653;-74
2022/09/06 04:29:33;;;;;;;5.57;3.00;;;20.90;99.90;;;;;;5008509;28;20549;-74
2022/09/06 04:31:59;;;;;;;4.23;3.40;;;20.90;99.90;;;;;;5012733;28;20185;-74
2022/09/06 04:34:24;;;;;;;6.77;2.27;;;20.80;99.90;;;;;;5006509;28;20673;-74
2022/09/06 04:36:51;;;;;;;6.97;3.77;;;20.80;99.90;;;;;;5011341;28;20652;-74
2022/09/06 04:39:17;;;;;;;4.07;2.90;;;20.80;99.90;;;;;;5012325;28;20593;-75
2022/09/06 04:41:42;;;;;;;4.53;3.03;;;20.80;99.90;;;;;;5012641;28;20681;-75
2022/09/06 04:44:08;;;;;;;3.90;3.00;;;20.80;99.90;;;;;;5012637;28;20701;-75
2022/09/06 04:46:34;;;;;;;4.60;3.00;;;20.80;99.90;;;;;;5012469;28;20181;-75
2022/09/06 04:49:00;;;;;;;3.90;2.50;;;20.80;99.90;;;;;;5012511;28;20210;-75
2022/09/06 04:51:26;;;;;;;3.20;2.20;;;20.80;99.90;;;;;;5012247;28;20178;-75
2022/09/06 04:53:52;;;;;;;3.23;2.47;;;20.80;99.90;;;;;;4993768;28;20617;-75
2022/09/06 04:56:23;;;;;;;3.10;2.20;;;20.80;99.90;;;;;;5012514;28;20624;-75
2022/09/06 04:58:50;;;;;;;4.13;3.00;;;20.80;99.90;;;;;;4992941;28;20658;-75
2022/09/06 05:01:16;;;;;;;4.80;2.50;;;20.80;99.90;;;;;;5025137;28;20687;-75
2022/09/06 05:03:42;;;;;;;5.20;3.10;;;20.80;99.90;;;;;;5027879;28;20642;-75
2022/09/06 05:06:11;;;;;;;4.50;2.73;;;20.80;99.90;;;;;;5032006;28;21110;-75
2022/09/06 05:08:38;;;;;;;4.27;2.67;;;20.80;99.90;;;;;;5031821;28;20176;-75
2022/09/06 05:11:04;;;;;;;3.17;2.30;;;20.80;99.90;;;;;;5031657;28;20636;-75
2022/09/06 05:13:30;;;;;;;3.67;3.00;;;20.70;99.90;;;;;;5031878;28;20591;-75
2022/09/06 05:16:03;;;;;;;5.30;3.37;;;20.70;99.90;;;;;;5031890;28;20564;-75
2022/09/06 05:18:29;;;;;;;5.13;2.77;;;20.70;99.90;;;;;;5031933;28;20612;-75
2022/09/06 05:20:55;;;;;;;6.53;3.50;;;20.70;99.90;;;;;;5031226;28;20635;-74
2022/09/06 05:23:21;;;;;;;4.40;3.13;;;20.70;99.90;;;;;;5031499;28;20564;-74
2022/09/06 05:25:48;;;;;;;5.03;2.97;;;20.80;99.90;;;;;;5031694;28;20564;-75
2022/09/06 05:28:14;;;;;;;6.10;3.57;;;20.80;99.90;;;;;;5031687;28;20575;-75
2022/09/06 05:30:43;;;;;;;6.50;2.60;;;20.70;99.90;;;;;;5031092;28;20631;-74
2022/09/06 05:33:11;;;;;;;3.47;3.17;;;20.80;99.90;;;;;;5031423;28;20560;-75
2022/09/06 05:35:36;;;;;;;2.83;2.53;;;20.80;99.90;;;;;;5010777;28;20623;-75
2022/09/06 05:38:02;;;;;;;3.13;2.43;;;20.80;99.90;;;;;;5014268;28;20581;-75
2022/09/06 05:40:29;;;;;;;4.23;3.57;;;20.90;99.90;;;;;;4998690;28;20238;-75
2022/09/06 05:42:54;;;;;;;4.20;3.13;;;20.90;99.90;;;;;;5027905;28;20691;-75
2022/09/06 05:45:20;;;;;;;5.83;3.70;;;20.90;99.90;;;;;;5013800;28;21002;-76
2022/09/06 05:47:46;;;;;;;5.13;2.83;;;20.90;99.90;;;;;;5031582;28;20249;-75
2022/09/06 05:50:12;;;;;;;3.87;3.13;;;21.00;99.90;;;;;;5031234;28;20663;-75
2022/09/06 05:52:38;;;;;;;4.33;2.27;;;21.00;99.90;;;;;;5031289;28;20176;-75
2022/09/06 05:55:05;;;;;;;7.57;2.70;;;21.00;99.90;;;;;;5031517;28;21138;-75
2022/09/06 05:57:31;;;;;;;3.27;2.93;;;21.10;99.90;;;;;;5031444;28;20572;-75
2022/09/06 05:59:57;;;;;;;4.63;3.17;;;21.10;99.90;;;;;;5031124;28;20641;-75
2022/09/06 06:02:23;;;;;;;7.33;2.80;;;21.10;99.90;;;;;;4997125;28;20800;-76
2022/09/06 06:04:50;;;;;;;3.70;2.93;;;21.20;99.90;;;;;;5035233;28;20166;-76
2022/09/06 06:07:16;;;;;;;6.60;3.10;;;21.20;99.90;;;;;;5035672;28;21238;-75
2022/09/06 06:09:42;;;;;;;3.80;2.70;;;21.30;99.90;;;;;;5034844;28;20603;-75
2022/09/06 06:12:09;;;;;;;4.93;3.40;;;21.40;99.90;;;;;;5014080;28;21142;-75
2022/09/06 06:14:34;;;;;;;5.00;2.90;;;21.40;99.90;;;;;;5015371;28;20677;-75
2022/09/06 06:17:01;;;;;;;3.97;2.80;;;21.50;99.90;;;;;;5017573;28;20663;-75
2022/09/06 06:19:27;;;;;;;3.73;2.80;;;21.50;99.90;;;;;;5014723;28;20201;-75
2022/09/06 06:21:55;;;;;;;3.73;3.20;;;21.60;99.90;;;;;;5029942;28;21174;-76
2022/09/06 06:24:21;;;;;;;2.60;2.27;;;21.70;99.90;;;;;;5028036;28;20584;-75
2022/09/06 06:26:47;;;;;;;6.23;3.10;;;21.70;99.90;;;;;;5022537;28;21122;-76
2022/09/06 06:29:13;;;;;;;8.40;2.83;;;21.80;99.90;;;;;;5025998;28;20626;-75
2022/09/06 06:31:39;;;;;;;5.73;2.60;;;21.90;99.90;;;;;;5034715;28;20235;-76
2022/09/06 06:34:05;;;;;;;3.10;2.43;;;22.00;99.90;;;;;;5034862;28;20637;-76
2022/09/06 06:36:33;;;;;;;2.80;2.23;;;22.10;99.90;;;;;;5034925;28;21165;-76
2022/09/06 06:39:01;;;;;;;6.73;2.40;;;22.20;99.90;;;;;;5016846;28;20612;-76
2022/09/06 06:41:28;;;;;;;4.70;2.33;;;22.30;99.90;;;;;;5034580;28;20612;-76
2022/09/06 06:43:57;;;;;;;3.80;2.73;;;22.40;99.90;;;;;;5016075;28;20582;-75
2022/09/06 06:46:25;;;;;;;5.00;2.37;;;22.60;99.90;;;;;;5034838;28;20553;-75
2022/09/06 06:48:53;;;;;;;7.90;3.10;;;23.00;99.90;;;;;;5034614;28;20597;-76
2022/09/06 06:51:20;;;;;;;3.13;1.70;;;23.60;99.90;;;;;;4996934;28;20581;-76
2022/09/06 06:53:46;;;;;;;3.00;2.00;;;24.50;99.90;;;;;;5032346;28;20655;-76
2022/09/06 06:56:25;;;;;;;2.90;1.60;;;25.40;99.90;;;;;;5034682;28;20564;-75
2022/09/06 06:58:56;;;;;;;4.03;2.00;;;26.20;99.90;;;;;;5034418;28;20599;-76
2022/09/06 07:01:23;;;;;;;3.80;1.70;;;27.10;99.90;;;;;;4994490;28;20716;-74
2022/09/06 07:03:49;;;;;;;3.70;1.53;;;27.90;99.90;;;;;;5025995;28;20593;-74
2022/09/06 07:06:16;;;;;;;2.87;1.50;;;28.60;99.90;;;;;;5005461;28;20595;-74
2022/09/06 07:08:42;;;;;;;6.10;1.60;;;29.50;99.90;;;;;;5026389;28;20604;-72
2022/09/06 07:11:10;;;;;;;1.60;0.93;;;30.00;99.90;;;;;;5013555;28;20661;-72
2022/09/06 07:13:36;;;;;;;2.27;1.40;;;30.40;99.90;;;;;;5031308;28;21204;-72
2022/09/06 07:16:07;;;;;;;5.13;1.40;;;31.00;99.60;;;;;;5034706;28;20568;-72
2022/09/06 07:18:33;;;;;;;2.57;1.30;;;31.40;95.60;;;;;;5034332;28;21139;-72
2022/09/06 07:20:59;;;;;;;2.87;1.90;;;31.90;96.00;;;;;;5034516;28;20618;-72
2022/09/06 07:23:25;;;;;;;2.90;1.40;;;32.20;93.80;;;;;;5035199;28;21107;-72
2022/09/06 07:25:51;;;;;;;2.33;1.00;;;32.90;93.60;;;;;;5036035;28;20540;-73
2022/09/06 07:28:16;;;;;;;4.23;1.67;;;33.40;92.50;;;;;;5033775;28;20211;-72
2022/09/06 07:30:42;;;;;;;3.30;1.27;;;33.80;90.00;;;;;;5033430;28;20208;-73
2022/09/06 07:33:08;;;;;;;2.50;1.10;;;34.10;89.20;;;;;;5029067;28;20642;-72
2022/09/06 07:35:33;;;;;;;3.27;1.20;;;34.40;84.10;;;;;;5013919;28;20304;-73
2022/09/06 07:38:00;;;;;;;2.80;0.90;;;34.60;77.30;;;;;;5033322;28;20173;-72
2022/09/06 07:40:28;;;;;;;5.20;1.10;;;34.70;75.30;;;;;;5033061;28;20198;-72
2022/09/06 07:42:58;;;;;;;2.73;1.10;;;35.00;74.30;;;;;;5033350;28;20572;-72
2022/09/06 07:45:24;;;;;;;5.40;1.10;;;35.20;71.00;;;;;;5033345;28;20580;-72
2022/09/06 07:48:00;;;;;;;3.60;1.40;;;35.40;70.80;;;;;;5033589;28;20572;-72
2022/09/06 07:50:27;;;;;;;2.43;0.90;;;35.60;70.20;;;;;;5033189;28;20602;-72
2022/09/06 07:52:53;;;;;;;7.30;0.90;;;35.90;68.20;;;;;;5033196;28;20596;-72
2022/09/06 07:55:19;;;;;;;5.17;0.80;;;36.20;65.10;;;;;;4996091;28;20644;-72
2022/09/06 07:57:44;;;;;;;2.67;1.37;;;36.40;65.10;;;;;;5030996;28;20168;-73
2022/09/06 08:00:11;;;;;;;4.47;0.90;;;36.40;62.50;;;;;;5032806;28;20276;-73
2022/09/06 08:02:39;;;;;;;3.07;0.70;;;36.50;61.40;;;;;;5033164;28;20240;-73
2022/09/06 08:05:06;;;;;;;2.93;0.93;;;36.70;59.80;;;;;;5012152;28;20580;-73
2022/09/06 08:07:32;;;;;;;2.70;0.90;;;36.60;56.00;;;;;;5029159;28;20170;-73
2022/09/06 08:09:57;;;;;;;4.57;1.20;;;36.40;57.30;;;;;;5032651;28;20663;-73
2022/09/06 08:12:26;;;;;;;2.17;0.80;;;36.30;56.10;;;;;;5032911;28;20196;-73
2022/09/06 08:14:52;;;;;;;2.97;0.97;;;36.40;56.50;;;;;;5014004;28;20202;-74
2022/09/06 08:17:18;;;;;;;1.60;0.80;;;36.60;54.50;;;;;;5028383;28;20663;-73
2022/09/06 08:19:43;;;;;;;3.67;1.07;;;36.70;55.10;;;;;;5030020;28;20774;-73
2022/09/06 08:22:09;;;;;;;1.50;0.60;;;36.90;54.40;;;;;;5032647;28;20198;-73
2022/09/06 08:24:35;;;;;;;3.63;0.90;;;37.30;55.10;;;;;;5011750;28;20233;-72
2022/09/06 08:27:02;;;;;;;3.27;0.70;;;37.60;53.90;;;;;;5032283;28;20209;-73
2022/09/06 08:29:28;;;;;;;2.43;0.80;;;37.70;53.00;;;;;;5032187;28;20212;-73
2022/09/06 08:31:53;;;;;;;1.70;0.60;;;38.10;52.90;;;;;;5019197;28;20680;-73
2022/09/06 08:34:19;;;;;;;2.50;1.00;;;38.50;52.30;;;;;;5024188;28;20201;-72
2022/09/06 08:36:45;;;;;;;2.40;0.70;;;38.70;51.80;;;;;;5032488;28;20174;-73
2022/09/06 08:39:11;;;;;;;4.17;0.70;;;39.10;50.70;;;;;;5032247;28;20193;-73
2022/09/06 08:41:59;;;;;;;2.73;0.80;;;39.20;49.80;;;;;;5032235;28;20202;-72
2022/09/06 08:44:47;;;;;;;1.90;0.70;;;39.60;50.40;;;;;;5032611;28;20621;-73
2022/09/06 08:47:15;;;;;;;1.40;0.70;;;39.90;48.00;;;;;;5011483;28;20561;-73
2022/09/06 08:49:42;;;;;;;1.27;0.60;;;40.00;47.50;;;;;;5029141;28;20615;-73
2022/09/06 08:52:32;;;;;;;3.30;0.70;;;40.20;46.60;;;;;;5032207;28;21006;-73
2022/09/06 08:55:26;;;;;;;1.77;0.70;;;40.00;45.00;;;;;;5014210;28;20584;-73
2022/09/06 08:58:29;;;;;;;3.57;0.70;;;40.30;46.80;;;;;;5032245;28;20575;-73
2022/09/06 09:01:03;;;;;;;2.80;0.70;;;40.60;40.90;;;;;;5031951;28;20611;-73
2022/09/06 09:03:37;;;;;;;2.90;0.57;;;40.80;44.20;;;;;;5032212;28;20935;-73
2022/09/06 09:06:05;;;;;;;2.50;0.70;;;41.00;44.00;;;;;;5031989;28;20573;-74
2022/09/06 09:08:52;;;;;;;2.00;0.67;;;40.90;42.90;;;;;;5031823;28;21228;-74
2022/09/06 09:11:24;;;;;;;1.50;0.70;;;40.70;42.00;;;;;;5031486;28;21242;-74
2022/09/06 09:14:00;;;;;;;5.37;0.80;;;40.60;40.40;;;;;;5031891;28;20611;-74
2022/09/06 09:16:26;;;;;;;3.77;0.93;;;40.40;40.90;;;;;;5032034;28;20681;-74
2022/09/06 09:19:02;;;;;;;1.83;0.70;;;40.30;41.40;;;;;;5031777;28;20691;-74
2022/09/06 09:21:31;;;;;;;1.57;0.50;;;40.30;41.50;;;;;;5031307;28;20197;-74
2022/09/06 09:24:05;;;;;;;2.40;0.60;;;40.50;41.60;;;;;;5031794;28;20580;-74
2022/09/06 09:26:48;;;;;;;2.30;0.60;;;40.60;41.50;;;;;;5031819;28;20564;-74
2022/09/06 09:29:14;;;;;;;2.00;0.63;;;40.90;40.70;;;;;;4994063;28;20969;-74
2022/09/06 09:31:46;;;;;;;1.93;0.70;;;40.80;40.10;;;;;;5028647;28;20576;-74
2022/09/06 09:34:26;;;;;;;5.00;0.70;;;40.90;40.00;;;;;;5031733;28;20576;-74
2022/09/06 09:37:11;;;;;;;1.30;0.57;;;40.90;40.00;;;;;;5031610;28;20585;-74
2022/09/06 09:39:38;;;;;;;3.20;0.70;;;40.90;39.70;;;;;;5030891;28;20651;-74
2022/09/06 09:42:06;;;;;;;2.03;0.70;;;40.80;38.80;;;;;;5031381;28;20623;-74
2022/09/06 09:44:32;;;;;;;1.47;0.70;;;40.50;38.20;;;;;;5031537;28;20571;-74
2022/09/06 09:46:58;;;;;;;2.00;0.67;;;40.20;38.00;;;;;;4997474;28;20604;-73
2022/09/06 09:49:24;;;;;;;1.20;0.60;;;40.10;38.20;;;;;;5031042;28;20686;-74
2022/09/06 09:52:12;;;;;;;1.50;0.70;;;40.10;38.20;;;;;;5012344;28;20189;-73
2022/09/06 09:54:44;;;;;;;3.00;0.70;;;40.10;38.60;;;;;;5010886;28;20585;-74
2022/09/06 09:57:16;;;;;;;2.10;0.60;;;40.20;38.10;;;;;;5028999;28;20650;-74
2022/09/06 09:59:53;;;;;;;1.50;0.67;;;40.40;38.30;;;;;;5001763;28;20622;-74
2022/09/06 10:02:24;;;;;;;1.40;0.70;;;40.70;38.40;;;;;;5007154;28;20588;-74
2022/09/06 10:05:00;;;;;;;2.50;0.87;;;40.90;38.90;;;;;;5004572;28;20670;-74
2022/09/06 10:07:26;;;;;;;1.60;0.70;;;41.40;38.10;;;;;;5025099;28;20615;-74
2022/09/06 10:10:05;;;;;;;3.10;0.60;;;41.40;37.30;;;;;;5031263;28;21037;-76
2022/09/06 10:12:34;;;;;;;3.83;0.70;;;41.60;36.30;;;;;;5010123;28;21196;-76
2022/09/06 10:15:00;;;;;;;1.60;0.70;;;41.70;37.30;;;;;;5031008;28;20642;-76
2022/09/06 10:17:33;;;;;;;2.67;0.50;;;41.80;36.60;;;;;;5010240;28;20576;-76
2022/09/06 10:20:06;;;;;;;1.60;0.60;;;42.00;36.50;;;;;;5030617;28;20608;-76
2022/09/06 10:22:40;;;;;;;2.57;0.50;;;42.30;37.30;;;;;;5031083;28;20580;-76
2022/09/06 10:25:29;;;;;;;2.40;0.60;;;42.90;37.30;;;;;;5031370;28;20914;-75
2022/09/06 10:28:06;;;;;;;1.40;0.73;;;43.30;37.40;;;;;;5031489;28;20616;-76
2022/09/06 10:30:39;;;;;;;1.70;0.70;;;43.80;36.60;;;;;;5009777;28;20739;-76
2022/09/06 10:33:22;;;;;;;1.63;0.67;;;44.10;36.00;;;;;;4997306;28;20610;-76
2022/09/06 10:35:48;;;;;;;1.50;0.60;;;44.30;35.50;;;;;;5031045;28;21075;-76
2022/09/06 10:38:37;;;;;;;1.50;0.70;;;44.30;34.90;;;;;;5030805;28;20564;-76
2022/09/06 10:41:40;;;;;;;1.20;0.50;;;44.00;34.20;;;;;;5030621;28;20180;-76
2022/09/06 10:44:26;;;;;;;1.30;0.60;;;43.80;33.40;;;;;;5031060;28;20963;-76
2022/09/06 10:47:02;;;;;;;1.40;0.50;;;43.30;33.80;;;;;;5030956;28;20582;-76
2022/09/06 10:49:27;;;;;;;1.67;0.50;;;42.90;34.00;;;;;;5031742;28;20620;-76
2022/09/06 10:52:00;;;;;;;2.27;1.00;;;42.80;34.00;;;;;;5034408;28;20681;-76
2022/09/06 10:54:29;;;;;;;1.77;0.60;;;42.80;34.40;;;;;;5034544;28;20178;-76
2022/09/06 10:57:03;;;;;;;1.60;0.80;;;42.90;34.50;;;;;;5034377;28;20572;-76
2022/09/06 10:59:57;;;;;;;1.30;0.60;;;43.00;34.20;;;;;;5029580;28;20620;-76
2022/09/06 11:02:31;;;;;;;2.43;0.83;;;43.10;34.30;;;;;;5013245;28;20638;-76
2022/09/06 11:05:03;;;;;;;1.30;0.57;;;43.20;33.90;;;;;;5016448;28;20566;-76
2022/09/06 11:07:36;;;;;;;1.70;0.50;;;43.20;33.20;;;;;;5034218;28;20620;-76
2022/09/06 11:10:23;;;;;;;1.40;0.60;;;43.20;33.50;;;;;;5033983;28;20602;-76
2022/09/06 11:12:53;;;;;;;1.77;0.60;;;43.00;33.00;;;;;;5034137;28;21148;-76
2022/09/06 11:15:21;;;;;;;1.80;0.60;;;42.90;33.00;;;;;;5034305;28;20647;-76
2022/09/06 11:17:58;;;;;;;1.70;0.60;;;42.80;33.00;;;;;;5014567;28;20654;-75
2022/09/06 11:20:36;;;;;;;1.70;0.60;;;42.80;32.80;;;;;;5033746;28;20595;-76
2022/09/06 11:23:04;;;;;;;2.77;0.70;;;42.70;32.80;;;;;;5034051;28;20622;-76
2022/09/06 11:26:15;;;;;;;1.40;0.80;;;42.50;32.30;;;;;;5033874;28;20979;-76
2022/09/06 11:28:55;;;;;;;2.20;0.80;;;42.20;32.20;;;;;;4999558;28;20923;-76
2022/09/06 11:31:25;;;;;;;2.17;1.00;;;41.60;31.90;;;;;;5033601;28;20616;-76
2022/09/06 11:34:18;;;;;;;2.23;0.80;;;41.00;32.00;;;;;;5033883;28;20564;-76
2022/09/06 11:36:50;;;;;;;1.20;0.50;;;40.40;32.30;;;;;;5035176;28;20633;-76
2022/09/06 11:39:31;;;;;;;1.57;0.60;;;40.10;33.00;;;;;;5029353;28;20605;-74
2022/09/06 11:41:58;;;;;;;1.60;0.80;;;40.00;33.60;;;;;;5033165;28;20572;-74
2022/09/06 11:44:48;;;;;;;2.47;0.80;;;40.10;33.80;;;;;;5033577;28;20576;-73
2022/09/06 11:47:40;;;;;;;1.50;0.70;;;40.10;33.80;;;;;;5033480;28;20572;-73
2022/09/06 11:50:25;;;;;;;1.83;0.70;;;40.10;33.80;;;;;;5033161;28;20997;-74
2022/09/06 11:52:58;;;;;;;1.80;0.63;;;40.20;33.90;;;;;;5014151;28;20580;-74
2022/09/06 11:55:50;;;;;;;3.67;0.90;;;40.30;33.70;;;;;;5012303;28;20609;-73
2022/09/06 11:58:15;;;;;;;2.87;2.17;;;40.20;33.20;;;;;;5027318;28;20668;-74
2022/09/06 12:00:42;;;;;;;3.10;1.47;;;40.20;33.90;;;;;;5032059;28;20965;-73
2022/09/06 12:03:09;;;;;;;4.33;1.20;;;40.20;33.90;;;;;;5033249;28;20651;-74
2022/09/06 12:06:13;;;;;;;2.00;0.73;;;40.20;34.10;;;;;;5033294;28;20622;-74
2022/09/06 12:08:40;;;;;;;11.73;1.40;;;40.20;33.90;;;;;;5032952;28;20564;-74
2022/09/06 12:11:28;;;;;;;2.63;0.90;;;40.20;34.00;;;;;;5032756;28;20623;-73
2022/09/06 12:13:55;;;;;;;1.80;0.93;;;40.10;33.80;;;;;;5033186;28;20913;-73
2022/09/06 12:16:22;;;;;;;2.33;0.90;;;40.10;34.10;;;;;;5033058;28;20583;-73
2022/09/06 12:18:48;;;;;;;1.60;0.73;;;40.10;34.00;;;;;;5032905;28;20601;-73
2022/09/06 12:21:32;;;;;;;1.80;0.80;;;40.10;34.00;;;;;;5032538;28;20577;-74
2022/09/06 12:23:59;;;;;;;2.43;0.60;;;40.00;34.00;;;;;;4998812;28;20540;-74
2022/09/06 12:26:43;;;;;;;1.70;0.77;;;40.20;34.20;;;;;;5032976;28;20572;-74
2022/09/06 12:29:10;;;;;;;2.40;0.77;;;40.10;34.20;;;;;;5011524;28;20978;-74
2022/09/06 12:31:42;;;;;;;3.80;0.73;;;40.20;34.10;;;;;;5011830;28;20631;-74
2022/09/06 12:34:17;;;;;;;5.93;0.80;;;40.10;34.10;;;;;;5032622;28;20615;-74
2022/09/06 12:37:03;;;;;;;3.87;0.70;;;40.10;34.40;;;;;;5032647;28;21133;-74
2022/09/06 12:39:29;;;;;;;2.70;0.80;;;40.00;34.60;;;;;;5032290;28;20592;-74
2022/09/06 12:42:02;;;;;;;2.07;0.70;;;39.90;33.80;;;;;;5032546;28;20564;-74
2022/09/06 12:44:34;;;;;;;1.70;0.70;;;39.80;33.80;;;;;;5014921;28;20556;-74
2022/09/06 12:47:27;;;;;;;2.17;0.73;;;39.50;33.90;;;;;;5032457;28;20978;-74
2022/09/06 12:50:30;;;;;;;2.17;0.73;;;39.30;33.80;;;;;;5013535;28;20608;-74
2022/09/06 12:52:59;;;;;;;1.80;0.67;;;39.10;34.00;;;;;;4951708;29;20706;-74
2022/09/06 12:55:37;;;;;;;3.93;1.00;;;38.90;33.90;;;;;;5016644;28;20580;-74
2022/09/06 12:58:02;;;;;;;1.60;0.80;;;38.70;34.10;;;;;;5011082;28;20631;-74
2022/09/06 13:00:52;;;;;;;1.40;0.70;;;38.40;34.00;;;;;;5027345;28;21169;-74
2022/09/06 13:03:33;;;;;;;1.50;0.70;;;38.10;34.30;;;;;;5014672;28;20169;-74
2022/09/06 13:06:03;;;;;;;1.50;0.80;;;37.90;34.20;;;;;;5032083;28;20932;-74
2022/09/06 13:08:45;;;;;;;2.07;0.77;;;37.50;34.10;;;;;;5011085;28;20561;-74